createdAt,value
2022-11-15T00:01:18.593Z,23.42
2022-11-15T00:03:46.949Z,25.98
2022-11-15T00:06:14.475Z,23.38
2022-11-15T00:08:41.956Z,22.38
2022-11-15T00:11:12.284Z,25.05
2022-11-15T00:13:40.009Z,24.92
2022-11-15T00:16:07.597Z,22.10
2022-11-15T00:18:35.069Z,22.15
2022-11-15T00:21:13.615Z,24.85
2022-11-15T00:23:41.632Z,23.73
2022-11-15T00:26:12.932Z,23.45
2022-11-15T00:28:40.949Z,24.70
2022-11-15T00:31:12.472Z,24.33
2022-11-15T00:33:39.931Z,27.35
2022-11-15T00:36:10.559Z,24.13
2022-11-15T00:38:40.804Z,25.60
2022-11-15T00:41:10.039Z,25.45
2022-11-15T00:43:38.362Z,27.25
2022-11-15T00:46:05.905Z,27.23
2022-11-15T00:48:33.579Z,29.10
2022-11-15T00:51:01.037Z,28.25
2022-11-15T00:53:29.307Z,28.55
2022-11-15T00:55:57.031Z,28.15
2022-11-15T00:58:24.485Z,28.52
2022-11-15T01:00:51.994Z,30.75
2022-11-15T01:03:19.523Z,31.40
2022-11-15T01:05:47.101Z,27.60
2022-11-15T01:08:16.045Z,27.83
2022-11-15T01:10:43.609Z,30.02
2022-11-15T01:13:11.109Z,28.38
2022-11-15T01:15:42.317Z,28.85
2022-11-15T01:18:10.454Z,26.48
2022-11-15T01:20:44.552Z,29.08
2022-11-15T01:23:12.333Z,25.92
2022-11-15T01:25:39.991Z,31.30
2022-11-15T01:28:07.702Z,30.83
2022-11-15T01:30:35.289Z,30.45
2022-11-15T01:33:02.832Z,30.75
2022-11-15T01:35:30.312Z,30.55
2022-11-15T01:37:57.888Z,31.23
2022-11-15T01:40:25.442Z,26.27
2022-11-15T01:42:52.979Z,29.73
2022-11-15T01:45:20.443Z,29.15
2022-11-15T01:47:53.517Z,28.65
2022-11-15T01:50:34.285Z,28.98
2022-11-15T01:53:01.926Z,28.35
2022-11-15T01:55:30.081Z,30.92
2022-11-15T01:58:03.855Z,30.13
2022-11-15T02:00:32.781Z,31.65
2022-11-15T02:03:00.371Z,30.05
2022-11-15T02:05:27.857Z,27.42
2022-11-15T02:07:56.319Z,30.70
2022-11-15T02:10:25.630Z,28.20
2022-11-15T02:12:54.580Z,27.75
2022-11-15T02:15:22.316Z,28.40
2022-11-15T02:18:04.053Z,29.83
2022-11-15T02:20:54.605Z,27.67
2022-11-15T02:23:45.774Z,29.73
2022-11-15T02:26:50.501Z,30.50
2022-11-15T02:29:20.944Z,30.42
2022-11-15T02:32:02.008Z,30.38
2022-11-15T02:34:42.946Z,35.40
2022-11-15T02:37:33.371Z,32.28
2022-11-15T02:40:07.522Z,32.22
2022-11-15T02:43:02.118Z,35.60
2022-11-15T02:45:39.036Z,33.35
2022-11-15T02:48:08.969Z,32.78
2022-11-15T02:50:36.875Z,32.63
2022-11-15T02:53:04.863Z,31.08
2022-11-15T02:55:34.403Z,30.10
2022-11-15T02:58:17.089Z,30.73
2022-11-15T03:00:53.839Z,32.15
2022-11-15T03:03:50.373Z,32.22
2022-11-15T03:06:26.883Z,31.00
2022-11-15T03:09:04.933Z,32.97
2022-11-15T03:11:38.703Z,30.90
2022-11-15T03:14:31.390Z,29.05
2022-11-15T03:19:56.312Z,29.52
2022-11-15T03:22:27.938Z,30.02
2022-11-15T03:25:00.814Z,30.35
2022-11-15T03:27:35.536Z,31.23
2022-11-15T03:30:07.176Z,29.90
2022-11-15T03:32:40.764Z,29.20
2022-11-15T03:35:15.573Z,31.77
2022-11-15T03:37:55.361Z,30.00
2022-11-15T03:40:31.484Z,29.58
2022-11-15T03:43:09.930Z,28.90
2022-11-15T03:46:09.710Z,29.48
2022-11-15T03:48:42.438Z,29.83
2022-11-15T03:51:10.298Z,27.65
2022-11-15T03:53:37.856Z,27.33
2022-11-15T03:56:05.489Z,26.75
2022-11-15T03:58:32.975Z,26.88
2022-11-15T04:01:01.282Z,27.02
2022-11-15T04:03:29.064Z,25.70
2022-11-15T04:05:56.821Z,24.58
2022-11-15T04:08:24.269Z,26.23
2022-11-15T04:10:52.190Z,24.98
2022-11-15T04:13:19.644Z,25.25
2022-11-15T04:15:47.101Z,24.60
2022-11-15T04:18:14.574Z,24.38
2022-11-15T04:20:59.571Z,24.20
2022-11-15T04:23:52.776Z,25.73
2022-11-15T04:26:23.049Z,24.95
2022-11-15T04:29:08.354Z,24.52
2022-11-15T04:31:35.850Z,23.88
2022-11-15T04:34:03.268Z,24.58
2022-11-15T04:36:47.997Z,24.13
2022-11-15T04:39:15.465Z,25.77
2022-11-15T04:41:43.017Z,22.05
2022-11-15T04:44:10.514Z,24.60
2022-11-15T04:46:38.054Z,22.48
2022-11-15T04:49:05.569Z,24.73
2022-11-15T04:51:33.028Z,22.52
2022-11-15T04:54:00.532Z,25.55
2022-11-15T04:56:28.029Z,22.98
2022-11-15T04:58:55.465Z,22.20
2022-11-15T05:01:22.964Z,22.00
2022-11-15T05:04:07.867Z,22.75
2022-11-15T05:06:35.393Z,24.30
2022-11-15T05:09:03.034Z,26.20
2022-11-15T05:11:30.579Z,23.45
2022-11-15T05:13:58.192Z,22.63
2022-11-15T05:16:25.653Z,23.80
2022-11-15T05:18:54.685Z,21.90
2022-11-15T05:21:22.555Z,21.63
2022-11-15T05:23:50.045Z,21.05
2022-11-15T05:26:19.490Z,20.85
2022-11-15T05:28:47.188Z,20.65
2022-11-15T05:31:17.585Z,21.45
2022-11-15T05:33:46.349Z,19.85
2022-11-15T05:36:35.677Z,19.73
2022-11-15T05:39:04.795Z,18.75
2022-11-15T05:41:58.718Z,18.13
2022-11-15T05:44:27.336Z,20.05
2022-11-15T05:46:56.790Z,19.92
2022-11-15T05:49:29.230Z,18.45
2022-11-15T05:51:56.968Z,17.95
2022-11-15T05:54:25.832Z,18.95
2022-11-15T05:56:54.110Z,19.17
2022-11-15T05:59:22.179Z,18.98
2022-11-15T06:01:49.747Z,19.38
2022-11-15T06:04:17.279Z,17.42
2022-11-15T06:06:44.995Z,19.55
2022-11-15T06:09:12.485Z,19.05
2022-11-15T06:11:39.964Z,18.48
2022-11-15T06:14:07.464Z,19.23
2022-11-15T06:16:34.967Z,18.27
2022-11-15T06:19:02.407Z,19.13
2022-11-15T06:21:30.131Z,16.38
2022-11-15T06:23:57.702Z,19.33
2022-11-15T06:26:25.201Z,19.33
2022-11-15T06:28:52.711Z,18.73
2022-11-15T06:31:20.239Z,19.55
2022-11-15T06:33:50.430Z,19.92
2022-11-15T06:36:18.449Z,20.50
2022-11-15T06:38:46.900Z,17.92
2022-11-15T06:41:15.754Z,18.92
2022-11-15T06:43:43.579Z,18.88
2022-11-15T06:46:11.588Z,20.77
2022-11-15T06:48:39.217Z,18.70
2022-11-15T06:51:06.993Z,18.58
2022-11-15T06:53:34.756Z,17.73
2022-11-15T06:56:03.728Z,17.67
2022-11-15T06:58:31.854Z,19.98
2022-11-15T07:01:05.237Z,18.40
2022-11-15T07:03:33.958Z,18.05
2022-11-15T07:06:07.087Z,17.77
2022-11-15T07:08:35.666Z,16.77
2022-11-15T07:11:05.919Z,19.48
2022-11-15T07:13:35.613Z,17.60
2022-11-15T07:16:08.810Z,18.60
2022-11-15T07:18:38.325Z,18.52
2022-11-15T07:21:07.821Z,17.70
2022-11-15T07:23:38.430Z,16.60
2022-11-15T07:26:06.140Z,17.75
2022-11-15T07:28:33.648Z,15.38
2022-11-15T07:31:08.477Z,16.05
2022-11-15T07:33:37.094Z,17.92
2022-11-15T07:36:07.418Z,15.65
2022-11-15T07:38:42.258Z,15.02
2022-11-15T07:41:10.740Z,13.77
2022-11-15T07:43:38.259Z,14.30
2022-11-15T07:46:10.834Z,15.27
2022-11-15T07:48:44.907Z,14.73
2022-11-15T07:51:17.854Z,14.30
2022-11-15T07:56:13.749Z,13.52
2022-11-15T07:58:41.485Z,14.00
2022-11-15T08:01:11.639Z,14.38
2022-11-15T08:03:39.390Z,13.95
2022-11-15T08:06:07.238Z,13.10
2022-11-15T08:08:34.862Z,12.52
2022-11-15T08:11:02.728Z,14.02
2022-11-15T08:13:30.399Z,13.82
2022-11-15T08:16:02.691Z,11.95
2022-11-15T08:18:30.309Z,12.70
2022-11-15T08:21:01.832Z,11.60
2022-11-15T08:23:30.156Z,11.60
2022-11-15T08:26:05.206Z,11.38
2022-11-15T08:28:34.037Z,10.35
2022-11-15T08:31:01.634Z,12.48
2022-11-15T08:33:30.388Z,11.60
2022-11-15T08:35:59.693Z,11.70
2022-11-15T08:38:29.775Z,11.00
2022-11-15T08:41:03.481Z,10.13
2022-11-15T08:43:31.628Z,9.88
2022-11-15T08:46:00.231Z,9.00
2022-11-15T08:48:27.731Z,10.50
2022-11-15T08:50:57.164Z,9.10
2022-11-15T08:53:25.192Z,8.82
2022-11-15T08:55:52.707Z,9.10
2022-11-15T08:58:20.213Z,8.32
2022-11-15T09:00:47.916Z,8.38
2022-11-15T09:03:16.156Z,6.93
2022-11-15T09:05:43.899Z,8.13
2022-11-15T09:08:40.383Z,6.97
2022-11-15T09:10:59.813Z,6.30
2022-11-15T09:13:27.328Z,8.98
2022-11-15T09:15:54.844Z,7.38
2022-11-15T09:18:23.668Z,7.28
2022-11-15T09:20:51.222Z,7.28
2022-11-15T09:23:20.581Z,8.32
2022-11-15T09:25:48.715Z,7.85
2022-11-15T09:28:16.241Z,7.95
2022-11-15T09:30:43.825Z,6.22
2022-11-15T09:33:13.218Z,7.25
2022-11-15T09:35:42.010Z,6.07
2022-11-15T09:38:09.749Z,7.55
2022-11-15T09:40:39.366Z,5.60
2022-11-15T09:43:47.680Z,5.38
2022-11-15T09:46:18.074Z,4.60
2022-11-15T09:48:57.071Z,4.88
2022-11-15T09:51:49.603Z,5.20
2022-11-15T09:57:41.207Z,4.50
2022-11-15T10:00:44.267Z,3.58
2022-11-15T10:03:17.377Z,4.22
2022-11-15T10:05:48.261Z,4.57
2022-11-15T10:08:30.854Z,4.00
2022-11-15T10:14:02.762Z,3.60
2022-11-15T10:16:51.910Z,3.95
2022-11-15T10:19:35.826Z,4.10
2022-11-15T10:22:12.137Z,3.50
2022-11-15T10:24:44.290Z,3.15
2022-11-15T10:27:17.622Z,3.47
2022-11-15T10:29:47.508Z,5.68
2022-11-15T10:32:18.731Z,3.60
2022-11-15T10:34:47.081Z,3.25
2022-11-15T10:37:14.941Z,2.83
2022-11-15T10:39:42.407Z,3.22
2022-11-15T10:42:29.916Z,2.40
2022-11-15T10:44:57.504Z,3.15
2022-11-15T10:47:39.236Z,2.67
2022-11-15T10:50:29.138Z,3.25
2022-11-15T10:52:57.068Z,2.88
2022-11-15T10:55:33.617Z,2.97
2022-11-15T10:58:36.285Z,3.47
2022-11-15T11:01:12.441Z,2.33
2022-11-15T11:03:41.577Z,1.30
2022-11-15T11:06:17.720Z,1.40
2022-11-15T11:09:06.263Z,1.40
2022-11-15T11:11:49.165Z,1.30
2022-11-15T11:14:28.252Z,1.52
2022-11-15T11:17:02.648Z,1.05
2022-11-15T11:20:04.532Z,1.10
2022-11-15T11:23:00.353Z,1.23
2022-11-15T11:25:59.783Z,1.05
2022-11-15T11:28:39.534Z,1.23
2022-11-15T11:31:27.438Z,0.80
2022-11-15T11:34:31.222Z,1.08
2022-11-15T11:37:32.737Z,0.77
2022-11-15T11:40:15.619Z,0.90
2022-11-15T11:42:49.346Z,0.82
2022-11-15T11:45:34.889Z,0.88
2022-11-15T11:48:15.838Z,0.65
2022-11-15T11:50:46.232Z,1.55
2022-11-15T11:53:16.476Z,1.02
2022-11-15T11:55:54.966Z,0.90
2022-11-15T11:58:37.643Z,0.60
2022-11-15T12:01:17.329Z,1.00
2022-11-15T12:04:15.965Z,0.85
2022-11-15T12:06:58.743Z,0.50
2022-11-15T12:09:47.514Z,0.73
2022-11-15T12:12:34.169Z,0.50
2022-11-15T12:15:22.924Z,0.88
2022-11-15T12:17:50.621Z,0.65
2022-11-15T12:20:30.943Z,0.80
2022-11-15T12:23:07.981Z,0.60
2022-11-15T12:25:52.598Z,0.65
2022-11-15T12:28:27.042Z,0.55
2022-11-15T12:31:07.268Z,0.70
2022-11-15T12:33:48.699Z,0.60
2022-11-15T12:36:22.439Z,0.88
2022-11-15T12:38:49.963Z,0.65
2022-11-15T12:41:19.756Z,0.90
2022-11-15T12:43:49.533Z,0.55
2022-11-15T12:46:44.925Z,1.55
2022-11-15T12:49:27.485Z,0.32
2022-11-15T12:52:00.812Z,0.80
2022-11-15T12:54:30.348Z,0.50
2022-11-15T12:57:07.600Z,0.50
2022-11-15T13:00:02.942Z,0.57
2022-11-15T13:02:41.076Z,1.38
2022-11-15T13:05:19.142Z,0.40
2022-11-15T13:07:46.576Z,0.52
2022-11-15T13:10:14.079Z,0.40
2022-11-15T13:12:47.677Z,0.60
2022-11-15T13:15:15.144Z,1.20
2022-11-15T13:17:52.686Z,0.40
2022-11-15T13:20:24.150Z,0.50
2022-11-15T13:23:03.556Z,0.60
2022-11-15T13:25:55.647Z,0.40
2022-11-15T13:28:28.436Z,0.50
2022-11-15T13:31:01.769Z,0.75
2022-11-15T13:33:36.353Z,0.55
2022-11-15T13:36:09.438Z,0.50
2022-11-15T13:38:39.564Z,0.70
2022-11-15T13:41:22.181Z,0.50
2022-11-15T13:43:51.577Z,0.45
2022-11-15T13:46:22.234Z,0.52
2022-11-15T13:48:55.453Z,0.45
2022-11-15T13:51:29.844Z,0.98
2022-11-15T13:54:03.860Z,0.80
2022-11-15T13:56:34.964Z,1.00
2022-11-15T13:59:10.988Z,1.50
2022-11-15T14:01:39.040Z,0.70
2022-11-15T14:04:06.520Z,0.90
2022-11-15T14:06:34.063Z,1.95
2022-11-15T14:09:13.531Z,1.27
2022-11-15T14:11:58.622Z,1.10
2022-11-15T14:14:27.752Z,0.90
2022-11-15T14:16:57.591Z,2.38
2022-11-15T14:19:25.258Z,0.73
2022-11-15T14:22:14.584Z,0.75
2022-11-15T14:24:44.820Z,0.90
2022-11-15T14:27:27.143Z,1.25
2022-11-15T14:29:55.172Z,0.70
2022-11-15T14:32:25.584Z,1.10
2022-11-15T14:34:59.193Z,0.90
2022-11-15T14:37:34.536Z,0.55
2022-11-15T14:40:03.356Z,0.98
2022-11-15T14:42:31.106Z,0.70
2022-11-15T14:44:58.708Z,0.70
2022-11-15T14:47:26.260Z,0.68
2022-11-15T14:49:53.739Z,0.77
2022-11-15T14:52:32.611Z,0.70
2022-11-15T14:55:02.351Z,1.13
2022-11-15T14:57:30.680Z,1.00
2022-11-15T14:59:58.209Z,1.17
2022-11-15T15:02:28.353Z,0.90
2022-11-15T15:04:56.300Z,0.88
2022-11-15T15:07:24.268Z,0.80
2022-11-15T15:09:51.856Z,0.70
2022-11-15T15:12:25.210Z,0.70
2022-11-15T15:14:52.746Z,0.80
2022-11-15T15:17:20.262Z,0.80
2022-11-15T15:19:47.781Z,1.15
2022-11-15T15:22:18.383Z,0.70
2022-11-15T15:24:46.904Z,0.88
2022-11-15T15:27:14.942Z,1.00
2022-11-15T15:29:42.920Z,0.70
2022-11-15T15:32:12.114Z,0.77
2022-11-15T15:34:40.174Z,0.85
2022-11-15T15:37:23.734Z,0.68
2022-11-15T15:39:55.557Z,0.60
2022-11-15T15:42:24.174Z,0.73
2022-11-15T15:44:52.777Z,0.70
2022-11-15T15:47:25.333Z,1.20
2022-11-15T15:49:52.872Z,0.52
2022-11-15T15:52:20.422Z,0.70
2022-11-15T15:54:47.976Z,0.50
2022-11-15T15:57:16.216Z,1.40
2022-11-15T15:59:43.658Z,1.23
2022-11-15T16:02:14.285Z,0.70
2022-11-15T16:04:42.364Z,0.60
2022-11-15T16:07:19.515Z,0.75
2022-11-15T16:10:02.360Z,0.85
2022-11-15T16:12:36.962Z,0.50
2022-11-15T16:15:04.794Z,0.88
2022-11-15T16:17:35.776Z,0.88
2022-11-15T16:20:03.880Z,0.70
2022-11-15T16:22:31.761Z,0.60
2022-11-15T16:24:59.375Z,0.60
2022-11-15T16:27:27.028Z,1.17
2022-11-15T16:29:54.550Z,0.70
2022-11-15T16:32:22.130Z,0.75
2022-11-15T16:34:49.597Z,1.20
2022-11-15T16:37:26.286Z,0.80
2022-11-15T16:39:58.410Z,1.70
2022-11-15T16:42:28.267Z,0.63
2022-11-15T16:44:55.814Z,0.60
2022-11-15T16:47:24.010Z,0.88
2022-11-15T16:49:51.460Z,0.70
2022-11-15T16:52:21.561Z,0.82
2022-11-15T16:54:49.273Z,1.67
2022-11-15T16:57:17.531Z,1.05
2022-11-15T16:59:45.058Z,1.35
2022-11-15T17:02:15.635Z,0.70
2022-11-15T17:04:43.101Z,0.93
2022-11-15T17:07:10.658Z,0.88
2022-11-15T17:09:38.325Z,0.82
2022-11-15T17:12:05.937Z,1.30
2022-11-15T17:14:33.384Z,0.70
2022-11-15T17:17:00.881Z,0.90
2022-11-15T17:19:28.518Z,1.48
2022-11-15T17:21:56.070Z,1.10
2022-11-15T17:24:23.515Z,0.90
2022-11-15T17:26:51.022Z,0.90
2022-11-15T17:29:18.529Z,1.08
2022-11-15T17:31:46.014Z,1.20
2022-11-15T17:34:13.478Z,1.20
2022-11-15T17:36:40.923Z,1.05
2022-11-15T17:39:08.403Z,1.35
2022-11-15T17:41:35.944Z,1.30
2022-11-15T17:44:04.036Z,1.77
2022-11-15T17:46:31.501Z,1.65
2022-11-15T17:48:59.146Z,1.92
2022-11-15T17:51:27.026Z,1.88
2022-11-15T17:53:54.514Z,2.38
2022-11-15T17:56:24.132Z,1.80
2022-11-15T17:58:56.648Z,1.58
2022-11-15T18:01:27.681Z,2.30
2022-11-15T18:03:56.620Z,1.75
2022-11-15T18:06:25.822Z,2.03
2022-11-15T18:08:55.942Z,2.65
2022-11-15T18:11:24.434Z,2.83
2022-11-15T18:13:55.563Z,2.47
2022-11-15T18:16:25.281Z,2.10
2022-11-15T18:18:53.469Z,1.90
2022-11-15T18:21:26.121Z,2.28
2022-11-15T18:23:59.474Z,2.35
2022-11-15T18:26:28.946Z,2.95
2022-11-15T18:28:58.864Z,2.42
2022-11-15T18:31:28.862Z,2.13
2022-11-15T18:33:57.056Z,2.42
2022-11-15T18:36:30.310Z,3.20
2022-11-15T18:39:03.314Z,2.75
2022-11-15T18:41:31.728Z,1.90
2022-11-15T18:44:01.687Z,2.95
2022-11-15T18:46:33.108Z,5.20
2022-11-15T18:49:02.923Z,3.15
2022-11-15T18:51:32.277Z,4.07
2022-11-15T18:54:03.673Z,2.92
2022-11-15T18:56:33.621Z,4.00
2022-11-15T18:59:03.023Z,2.92
2022-11-15T19:01:38.589Z,3.35
2022-11-15T19:04:09.414Z,2.83
2022-11-15T19:06:44.444Z,2.42
2022-11-15T19:09:15.278Z,2.85
2022-11-15T19:11:44.419Z,2.75
2022-11-15T19:14:14.536Z,3.92
2022-11-15T19:16:49.931Z,3.78
2022-11-15T19:19:20.686Z,3.42
2022-11-15T19:21:48.542Z,4.05
2022-11-15T19:24:16.093Z,3.42
2022-11-15T19:26:44.967Z,4.30
2022-11-15T19:29:13.783Z,3.95
2022-11-15T19:31:41.575Z,3.55
2022-11-15T19:34:09.671Z,3.58
2022-11-15T19:36:46.499Z,4.63
2022-11-15T19:39:17.900Z,4.22
2022-11-15T19:41:46.468Z,4.53
2022-11-15T19:44:14.904Z,4.00
2022-11-15T19:46:44.223Z,4.18
2022-11-15T19:49:12.019Z,5.15
2022-11-15T19:51:42.300Z,4.22
2022-11-15T19:57:18.937Z,4.88
2022-11-15T19:59:46.390Z,4.45
2022-11-15T20:02:13.875Z,4.32
2022-11-15T20:04:41.365Z,6.65
2022-11-15T20:07:09.405Z,4.82
2022-11-15T20:09:37.799Z,5.30
2022-11-15T20:12:05.448Z,4.28
2022-11-15T20:14:32.941Z,5.88
2022-11-15T20:17:00.423Z,5.05
2022-11-15T20:19:27.955Z,5.03
2022-11-15T20:21:55.449Z,6.88
2022-11-15T20:24:23.277Z,4.88
2022-11-15T20:26:50.719Z,5.50
2022-11-15T20:29:18.187Z,5.72
2022-11-15T20:31:46.063Z,5.85
2022-11-15T20:34:13.535Z,6.15
2022-11-15T20:36:40.981Z,5.57
2022-11-15T20:39:08.459Z,6.28
2022-11-15T20:41:36.077Z,6.50
2022-11-15T20:44:03.960Z,6.30
2022-11-15T20:46:31.477Z,6.18
2022-11-15T20:48:58.945Z,5.20
2022-11-15T20:51:26.407Z,6.65
2022-11-15T20:53:53.903Z,6.65
2022-11-15T20:56:22.671Z,6.55
2022-11-15T20:58:51.582Z,5.82
2022-11-15T21:01:23.551Z,5.50
2022-11-15T21:03:57.797Z,7.65
2022-11-15T21:06:26.944Z,8.32
2022-11-15T21:09:12.748Z,7.20
2022-11-15T21:11:58.168Z,6.50
2022-11-15T21:14:25.741Z,5.90
2022-11-15T21:16:53.195Z,6.03
2022-11-15T21:19:25.831Z,7.60
2022-11-15T21:21:57.038Z,6.28
2022-11-15T21:24:24.660Z,7.00
2022-11-15T21:26:52.901Z,8.73
2022-11-15T21:29:20.482Z,8.68
2022-11-15T21:31:50.629Z,7.78
2022-11-15T21:34:19.119Z,7.55
2022-11-15T21:36:46.739Z,7.90
2022-11-15T21:39:14.180Z,7.93
2022-11-15T21:41:41.755Z,6.95
2022-11-15T21:44:09.254Z,9.07
2022-11-15T21:46:37.212Z,8.98
2022-11-15T21:49:06.397Z,8.35
2022-11-15T21:51:34.573Z,9.75
2022-11-15T21:54:02.136Z,8.65
2022-11-15T21:56:30.449Z,9.45
2022-11-15T21:58:58.113Z,8.60
2022-11-15T22:01:44.225Z,8.57
2022-11-15T22:04:12.339Z,10.27
2022-11-15T22:06:40.128Z,8.55
2022-11-15T22:09:08.656Z,9.15
2022-11-15T22:11:36.713Z,8.85
2022-11-15T22:14:04.594Z,8.60
2022-11-15T22:16:32.889Z,9.18
2022-11-15T22:19:00.740Z,9.70
2022-11-15T22:21:28.204Z,9.07
2022-11-15T22:23:55.661Z,10.07
2022-11-15T22:26:24.029Z,9.82
2022-11-15T22:28:52.085Z,10.18
2022-11-15T22:31:19.817Z,10.30
2022-11-15T22:33:47.408Z,9.05
2022-11-15T22:36:15.007Z,9.80
2022-11-15T22:38:42.472Z,9.27
2022-11-15T22:41:10.231Z,10.70
2022-11-15T22:43:38.047Z,10.95
2022-11-15T22:46:06.276Z,12.32
2022-11-15T22:48:39.327Z,10.77
2022-11-15T22:51:07.412Z,10.13
2022-11-15T22:53:34.961Z,10.90
2022-11-15T22:56:04.138Z,9.77
2022-11-15T22:58:33.355Z,10.20
2022-11-15T23:01:03.849Z,10.15
2022-11-15T23:03:32.525Z,9.45
2022-11-15T23:06:07.860Z,10.05
2022-11-15T23:08:36.139Z,10.27
2022-11-15T23:11:37.529Z,9.63
2022-11-15T23:14:05.105Z,8.93
2022-11-15T23:16:35.565Z,8.40
2022-11-15T23:19:09.245Z,9.63
2022-11-15T23:21:59.985Z,9.48
2022-11-15T23:24:28.102Z,8.10
2022-11-15T23:26:58.034Z,9.75
2022-11-15T23:29:27.240Z,11.20
2022-11-15T23:32:13.979Z,8.95
2022-11-15T23:34:43.935Z,7.25
2022-11-15T23:37:13.852Z,9.30
2022-11-15T23:39:41.500Z,8.60
2022-11-15T23:42:19.351Z,8.77
2022-11-15T23:44:49.855Z,9.00
2022-11-15T23:47:21.030Z,9.13
2022-11-15T23:49:48.513Z,8.05
2022-11-15T23:52:17.210Z,9.70
2022-11-15T23:54:45.279Z,9.07
2022-11-15T23:57:12.937Z,9.20
2022-11-15T23:59:44.399Z,9.35
